createdAt,value
2018-12-11T00:02:12.090Z,80.60
2018-12-11T00:04:43.069Z,80.50
2018-12-11T00:07:12.274Z,80.80
2018-12-11T00:09:41.306Z,80.50
2018-12-11T00:12:10.459Z,80.50
2018-12-11T00:14:39.591Z,80.40
2018-12-11T00:17:08.661Z,80.00
2018-12-11T00:19:37.744Z,80.20
2018-12-11T00:22:06.727Z,80.20
2018-12-11T00:24:35.905Z,80.20
2018-12-11T00:27:04.996Z,80.40
2018-12-11T00:29:34.163Z,80.60
2018-12-11T00:32:03.250Z,80.80
2018-12-11T00:34:32.371Z,80.90
2018-12-11T00:37:01.466Z,80.90
2018-12-11T00:39:30.670Z,81.10
2018-12-11T00:41:59.740Z,80.80
2018-12-11T00:44:28.858Z,80.60
2018-12-11T00:46:57.917Z,80.50
2018-12-11T00:49:27.072Z,80.10
2018-12-11T00:51:56.179Z,80.00
2018-12-11T00:54:25.207Z,79.80
2018-12-11T00:56:54.252Z,80.00
2018-12-11T00:59:23.312Z,80.10
2018-12-11T01:01:52.413Z,80.20
2018-12-11T01:04:21.745Z,80.20
2018-12-11T01:06:50.878Z,80.10
2018-12-11T01:09:20.089Z,80.00
2018-12-11T01:11:49.121Z,80.20
2018-12-11T01:14:18.214Z,80.40
2018-12-11T01:16:47.361Z,80.30
2018-12-11T01:19:16.416Z,79.90
2018-12-11T01:21:45.420Z,80.20
2018-12-11T01:24:14.471Z,80.40
2018-12-11T01:26:43.594Z,80.50
2018-12-11T01:29:12.548Z,80.20
2018-12-11T01:31:41.606Z,79.70
2018-12-11T01:34:10.586Z,79.70
2018-12-11T01:36:39.659Z,79.60
2018-12-11T01:39:09.658Z,79.80
2018-12-11T01:41:39.118Z,79.70
2018-12-11T01:44:08.163Z,79.90
2018-12-11T01:46:38.393Z,79.70
2018-12-11T01:49:07.677Z,79.70
2018-12-11T01:51:36.856Z,79.70
2018-12-11T01:54:05.941Z,79.80
2018-12-11T01:56:34.960Z,79.70
2018-12-11T01:59:04.030Z,79.50
2018-12-11T02:01:33.091Z,79.70
2018-12-11T02:04:02.169Z,80.00
2018-12-11T02:06:32.246Z,80.90
2018-12-11T02:09:01.301Z,79.80
2018-12-11T02:11:32.279Z,79.40
2018-12-11T02:14:01.283Z,79.50
2018-12-11T02:16:30.256Z,79.50
2018-12-11T02:18:59.384Z,79.40
2018-12-11T02:21:28.445Z,79.40
2018-12-11T02:23:57.537Z,79.50
2018-12-11T02:26:26.602Z,79.40
2018-12-11T02:28:55.764Z,79.40
2018-12-11T02:31:24.891Z,79.60
2018-12-11T02:33:53.974Z,79.50
2018-12-11T02:36:22.972Z,79.70
2018-12-11T02:38:52.038Z,79.70
2018-12-11T02:41:21.104Z,79.50
2018-12-11T02:43:50.147Z,79.40
2018-12-11T02:46:19.184Z,79.40
2018-12-11T02:48:48.275Z,79.80
2018-12-11T02:51:17.340Z,80.10
2018-12-11T02:53:46.410Z,79.80
2018-12-11T02:56:15.441Z,80.00
2018-12-11T02:58:44.541Z,80.20
2018-12-11T03:01:13.687Z,79.70
2018-12-11T03:03:42.793Z,79.80
2018-12-11T03:06:11.863Z,80.00
2018-12-11T03:08:40.908Z,79.90
2018-12-11T03:11:10.005Z,79.50
2018-12-11T03:13:39.038Z,79.60
2018-12-11T03:16:08.091Z,79.50
2018-12-11T03:18:37.139Z,79.70
2018-12-11T03:21:06.224Z,80.00
2018-12-11T03:23:35.251Z,80.10
2018-12-11T03:26:28.725Z,80.00
2018-12-11T03:28:57.902Z,79.70
2018-12-11T03:31:26.896Z,79.50
2018-12-11T03:33:56.021Z,79.40
2018-12-11T03:36:25.255Z,79.70
2018-12-11T03:38:54.357Z,79.60
2018-12-11T03:41:23.344Z,80.40
2018-12-11T03:43:58.959Z,79.50
2018-12-11T03:46:28.112Z,79.70
2018-12-11T03:48:57.165Z,79.80
2018-12-11T03:51:26.180Z,79.70
2018-12-11T03:53:55.172Z,79.50
2018-12-11T03:56:24.201Z,79.70
2018-12-11T03:58:53.223Z,80.00
2018-12-11T04:01:22.351Z,80.50
2018-12-11T04:03:51.820Z,80.70
2018-12-11T04:06:20.834Z,80.90
2018-12-11T04:08:49.847Z,80.90
2018-12-11T04:11:18.902Z,80.90
2018-12-11T04:13:48.006Z,81.00
2018-12-11T04:16:16.991Z,80.80
2018-12-11T04:18:45.983Z,80.90
2018-12-11T04:21:15.056Z,81.00
2018-12-11T04:23:44.086Z,81.40
2018-12-11T04:26:15.026Z,81.00
2018-12-11T04:28:44.086Z,81.70
2018-12-11T04:31:13.125Z,81.60
2018-12-11T04:33:42.298Z,81.70
2018-12-11T04:36:11.377Z,81.70
2018-12-11T04:38:40.487Z,81.20
2018-12-11T04:41:09.623Z,81.10
2018-12-11T04:43:38.680Z,80.90
2018-12-11T04:46:07.779Z,80.80
2018-12-11T04:48:36.951Z,80.70
2018-12-11T04:51:05.968Z,80.40
2018-12-11T04:53:35.012Z,80.50
2018-12-11T04:56:04.109Z,80.40
2018-12-11T04:58:33.109Z,80.30
2018-12-11T05:01:02.136Z,80.40
2018-12-11T05:03:32.341Z,80.60
2018-12-11T05:06:01.438Z,80.80
2018-12-11T05:08:30.486Z,81.10
2018-12-11T05:10:59.442Z,81.30
2018-12-11T05:13:28.497Z,81.50
2018-12-11T05:15:57.564Z,81.40
2018-12-11T05:18:26.519Z,81.20
2018-12-11T05:20:55.570Z,81.00
2018-12-11T05:23:24.602Z,81.80
2018-12-11T05:25:53.642Z,80.70
2018-12-11T05:28:22.801Z,80.80
2018-12-11T05:30:51.784Z,80.80
2018-12-11T05:33:20.787Z,81.40
2018-12-11T05:35:49.839Z,81.80
2018-12-11T05:38:18.827Z,81.50
2018-12-11T05:40:47.897Z,81.40
2018-12-11T05:43:17.007Z,81.30
2018-12-11T05:45:46.077Z,81.30
2018-12-11T05:48:15.087Z,81.00
2018-12-11T05:50:44.210Z,81.00
2018-12-11T05:53:13.326Z,81.00
2018-12-11T05:55:42.321Z,81.10
2018-12-11T05:58:11.523Z,81.30
2018-12-11T06:00:40.619Z,81.20
2018-12-11T06:03:09.640Z,81.20
2018-12-11T06:05:38.788Z,81.20
2018-12-11T06:08:07.849Z,81.30
2018-12-11T06:10:36.955Z,80.90
2018-12-11T06:13:05.989Z,80.80
2018-12-11T06:15:35.009Z,80.80
2018-12-11T06:18:04.224Z,80.90
2018-12-11T06:20:34.524Z,80.90
2018-12-11T06:23:03.699Z,81.20
2018-12-11T06:25:32.734Z,81.20
2018-12-11T06:28:01.809Z,81.20
2018-12-11T06:30:30.952Z,81.30
2018-12-11T06:32:59.995Z,80.90
2018-12-11T06:35:29.038Z,80.90
2018-12-11T06:37:58.018Z,81.10
2018-12-11T06:40:27.107Z,81.20
2018-12-11T06:42:56.112Z,80.80
2018-12-11T06:45:25.215Z,80.60
2018-12-11T06:47:54.453Z,80.20
2018-12-11T06:50:25.527Z,80.40
2018-12-11T06:52:54.577Z,80.70
2018-12-11T06:55:23.567Z,80.40
2018-12-11T06:57:52.555Z,80.20
2018-12-11T07:00:21.656Z,80.20
2018-12-11T07:02:50.677Z,80.20
2018-12-11T07:05:19.704Z,80.10
2018-12-11T07:07:48.713Z,80.40
2018-12-11T07:10:17.809Z,80.80
2018-12-11T07:12:46.962Z,80.90
2018-12-11T07:15:15.990Z,80.70
2018-12-11T07:17:45.120Z,80.80
2018-12-11T07:20:14.223Z,80.50
2018-12-11T07:22:43.381Z,80.60
2018-12-11T07:25:12.433Z,80.60
2018-12-11T07:27:41.531Z,80.80
2018-12-11T07:30:12.013Z,80.60
2018-12-11T07:32:41.151Z,80.30
2018-12-11T07:35:10.259Z,80.30
2018-12-11T07:37:39.446Z,80.30
2018-12-11T07:40:08.931Z,80.40
2018-12-11T07:42:38.079Z,80.50
2018-12-11T07:45:07.379Z,80.60
2018-12-11T07:47:36.466Z,80.30
2018-12-11T07:50:05.817Z,80.10
2018-12-11T07:52:34.810Z,80.30
2018-12-11T07:55:05.297Z,80.50
2018-12-11T07:57:34.524Z,80.30
2018-12-11T08:00:04.125Z,80.20
2018-12-11T08:02:34.632Z,79.70
2018-12-11T08:05:03.838Z,79.70
2018-12-11T08:07:32.962Z,79.90
2018-12-11T08:10:02.084Z,80.10
2018-12-11T08:12:31.190Z,79.90
2018-12-11T08:15:00.202Z,79.70
2018-12-11T08:17:29.277Z,79.10
2018-12-11T08:19:58.353Z,78.90
2018-12-11T08:22:27.483Z,79.50
2018-12-11T08:24:56.538Z,79.70
2018-12-11T08:27:25.566Z,79.60
2018-12-11T08:29:54.589Z,79.40
2018-12-11T08:32:23.572Z,79.30
2018-12-11T08:34:52.691Z,79.10
2018-12-11T08:37:22.842Z,78.90
2018-12-11T08:39:51.860Z,79.00
2018-12-11T08:42:20.815Z,78.80
2018-12-11T08:44:51.290Z,78.80
2018-12-11T08:47:20.502Z,78.10
2018-12-11T08:49:49.721Z,78.10
2018-12-11T08:52:18.702Z,78.20
2018-12-11T08:54:47.780Z,77.80
2018-12-11T08:57:16.806Z,77.50
2018-12-11T08:59:45.889Z,77.20
2018-12-11T09:02:14.980Z,77.30
2018-12-11T09:04:44.025Z,77.20
2018-12-11T09:07:13.061Z,77.20
2018-12-11T09:09:42.096Z,76.60
2018-12-11T09:12:11.105Z,76.20
2018-12-11T09:14:40.201Z,76.10
2018-12-11T09:17:10.180Z,76.30
2018-12-11T09:19:39.826Z,76.60
2018-12-11T09:22:08.856Z,76.50
2018-12-11T09:24:37.865Z,75.90
2018-12-11T09:27:06.820Z,76.00
2018-12-11T09:29:35.835Z,75.80
2018-12-11T09:32:04.779Z,75.60
2018-12-11T09:34:33.772Z,75.20
2018-12-11T09:37:02.910Z,75.10
2018-12-11T09:39:31.873Z,75.10
2018-12-11T09:42:06.876Z,75.00
2018-12-11T09:44:31.983Z,74.40
2018-12-11T09:47:00.966Z,74.20
2018-12-11T09:49:30.045Z,74.00
2018-12-11T09:51:59.190Z,74.30
2018-12-11T09:54:28.217Z,74.20
2018-12-11T09:56:58.018Z,74.50
2018-12-11T09:59:27.252Z,74.60
2018-12-11T10:01:56.339Z,74.40
2018-12-11T10:04:25.421Z,74.00
2018-12-11T10:06:54.365Z,74.40
2018-12-11T10:09:23.431Z,74.40
2018-12-11T10:11:52.482Z,74.30
2018-12-11T10:14:21.440Z,74.30
2018-12-11T10:16:50.370Z,74.60
2018-12-11T10:19:19.506Z,74.30
2018-12-11T10:21:48.525Z,73.70
2018-12-11T10:24:17.514Z,75.00
2018-12-11T10:26:46.799Z,73.60
2018-12-11T10:29:15.768Z,74.10
2018-12-11T10:31:44.849Z,74.40
2018-12-11T10:34:13.806Z,74.30
2018-12-11T10:36:42.832Z,73.60
2018-12-11T10:39:11.863Z,73.50
2018-12-11T10:41:40.943Z,73.50
2018-12-11T10:44:09.907Z,72.90
2018-12-11T10:46:38.928Z,73.80
2018-12-11T10:49:07.887Z,73.90
2018-12-11T10:51:37.044Z,74.00
2018-12-11T10:54:05.965Z,73.50
2018-12-11T10:56:34.881Z,73.30
2018-12-11T10:59:03.978Z,73.00
2018-12-11T11:01:37.300Z,72.90
2018-12-11T11:04:06.349Z,72.80
2018-12-11T11:06:35.280Z,72.40
2018-12-11T11:09:06.998Z,72.20
2018-12-11T11:11:37.920Z,72.30
2018-12-11T11:14:06.935Z,72.30
2018-12-11T11:16:35.930Z,72.50
2018-12-11T11:19:04.940Z,72.20
2018-12-11T11:21:33.844Z,71.90
2018-12-11T11:24:02.769Z,71.90
2018-12-11T11:26:31.665Z,71.80
2018-12-11T11:29:00.738Z,71.90
2018-12-11T11:31:29.713Z,71.90
2018-12-11T11:33:58.737Z,71.80
2018-12-11T11:36:27.690Z,72.00
2018-12-11T11:38:56.700Z,71.60
2018-12-11T11:41:25.654Z,72.00
2018-12-11T11:43:54.560Z,71.70
2018-12-11T11:46:23.659Z,71.50
2018-12-11T11:48:52.673Z,71.50
2018-12-11T11:51:21.675Z,71.70
2018-12-11T11:53:50.556Z,71.20
2018-12-11T11:56:19.485Z,71.10
2018-12-11T11:58:48.437Z,71.40
2018-12-11T12:01:17.363Z,71.40
2018-12-11T12:03:46.325Z,71.40
2018-12-11T12:06:15.234Z,71.50
2018-12-11T12:08:44.185Z,72.30
2018-12-11T12:11:13.121Z,71.50
2018-12-11T12:13:42.125Z,71.00
2018-12-11T12:16:11.039Z,71.20
2018-12-11T12:18:39.994Z,70.50
2018-12-11T12:21:08.970Z,70.20
2018-12-11T12:23:37.946Z,70.40
2018-12-11T12:26:06.972Z,70.80
2018-12-11T12:28:36.125Z,70.60
2018-12-11T12:31:05.684Z,70.30
2018-12-11T12:33:34.807Z,70.70
2018-12-11T12:36:03.767Z,70.10
2018-12-11T12:38:32.873Z,70.30
2018-12-11T12:41:01.901Z,70.50
2018-12-11T12:43:30.886Z,71.10
2018-12-11T12:45:59.889Z,71.00
2018-12-11T12:48:28.833Z,70.60
2018-12-11T12:50:57.794Z,70.30
2018-12-11T12:53:26.737Z,70.20
2018-12-11T12:55:55.677Z,70.20
2018-12-11T12:58:24.714Z,70.20
2018-12-11T13:00:53.938Z,70.20
2018-12-11T13:03:23.417Z,70.70
2018-12-11T13:05:52.352Z,71.10
2018-12-11T13:08:21.260Z,71.10
2018-12-11T13:10:50.316Z,70.60
2018-12-11T13:13:19.242Z,70.70
2018-12-11T13:15:48.244Z,70.70
2018-12-11T13:18:17.165Z,70.80
2018-12-11T13:20:46.209Z,71.10
2018-12-11T13:23:15.149Z,71.40
2018-12-11T13:25:44.196Z,71.60
2018-12-11T13:28:13.468Z,71.40
2018-12-11T13:30:42.473Z,71.30
2018-12-11T13:33:11.395Z,71.30
2018-12-11T13:35:40.468Z,71.70
2018-12-11T13:41:06.909Z,72.00
2018-12-11T13:43:35.958Z,71.80
2018-12-11T13:46:04.949Z,71.80
2018-12-11T13:48:34.150Z,72.20
2018-12-11T13:51:03.213Z,73.20
2018-12-11T13:53:32.185Z,72.40
2018-12-11T13:56:01.193Z,71.20
2018-12-11T13:58:30.125Z,72.30
2018-12-11T14:00:59.156Z,72.30
2018-12-11T14:03:28.121Z,72.50
2018-12-11T14:05:57.041Z,72.50
2018-12-11T14:08:25.980Z,72.50
2018-12-11T14:10:54.909Z,72.40
2018-12-11T14:13:23.864Z,72.50
2018-12-11T14:15:52.877Z,72.50
2018-12-11T14:18:21.817Z,72.70
2018-12-11T14:20:50.793Z,72.70
2018-12-11T14:23:19.713Z,72.90
2018-12-11T14:25:49.613Z,72.70
2018-12-11T14:28:18.822Z,72.60
2018-12-11T14:33:50.955Z,72.80
2018-12-11T14:36:20.302Z,72.80
2018-12-11T14:38:51.342Z,72.90
2018-12-11T14:41:20.375Z,73.10
2018-12-11T14:43:49.371Z,73.30
2018-12-11T14:46:18.349Z,73.40
2018-12-11T14:48:47.382Z,73.40
2018-12-11T14:51:16.450Z,73.80
2018-12-11T14:53:45.875Z,73.80
2018-12-11T14:56:14.906Z,73.90
2018-12-11T14:58:43.972Z,73.90
2018-12-11T15:01:13.035Z,74.10
2018-12-11T15:03:42.100Z,74.20
2018-12-11T15:06:11.146Z,74.40
2018-12-11T15:08:40.863Z,74.50
2018-12-11T15:11:09.919Z,74.50
2018-12-11T15:13:39.071Z,74.30
2018-12-11T15:16:08.262Z,74.20
2018-12-11T15:18:37.391Z,74.50
2018-12-11T15:21:06.527Z,74.50
2018-12-11T15:23:35.636Z,74.30
2018-12-11T15:26:05.564Z,74.30
2018-12-11T15:28:34.690Z,74.50
2018-12-11T15:31:13.278Z,74.80
2018-12-11T15:33:42.566Z,74.80
2018-12-11T15:36:11.556Z,74.80
2018-12-11T15:38:40.725Z,74.80
2018-12-11T15:41:09.863Z,74.80
2018-12-11T15:43:38.923Z,75.00
2018-12-11T15:46:07.989Z,75.00
2018-12-11T15:48:38.315Z,74.70
2018-12-11T15:51:07.470Z,74.70
2018-12-11T15:53:36.491Z,74.70
2018-12-11T15:56:05.613Z,74.60
2018-12-11T15:58:34.676Z,74.70
2018-12-11T16:01:03.725Z,74.70
2018-12-11T16:03:33.816Z,74.60
2018-12-11T16:06:04.048Z,74.70
2018-12-11T16:08:33.279Z,74.80
2018-12-11T16:11:02.412Z,75.00
2018-12-11T16:13:31.530Z,75.10
2018-12-11T16:16:00.601Z,75.10
2018-12-11T16:18:29.679Z,75.10
2018-12-11T16:20:58.710Z,75.20
2018-12-11T16:23:27.764Z,75.40
2018-12-11T16:25:56.848Z,75.50
2018-12-11T16:28:25.955Z,75.60
2018-12-11T16:30:55.128Z,75.80
2018-12-11T16:33:24.192Z,75.80
2018-12-11T16:35:53.282Z,75.80
2018-12-11T16:38:22.339Z,75.90
2018-12-11T16:40:51.468Z,76.00
2018-12-11T16:43:20.750Z,76.00
2018-12-11T16:45:49.817Z,75.80
2018-12-11T16:48:19.033Z,75.80
2018-12-11T16:50:48.075Z,75.70
2018-12-11T16:53:17.139Z,75.80
2018-12-11T16:55:46.206Z,75.70
2018-12-11T16:58:15.336Z,75.80
2018-12-11T17:00:47.160Z,75.80
2018-12-11T17:03:16.722Z,75.80
2018-12-11T17:05:46.337Z,75.80
2018-12-11T17:08:16.011Z,75.90
2018-12-11T17:10:45.566Z,76.00
2018-12-11T17:13:15.129Z,76.00
2018-12-11T17:15:44.726Z,76.00
2018-12-11T17:18:14.131Z,76.00
2018-12-11T17:20:47.603Z,75.70
2018-12-11T17:23:18.318Z,75.70
2018-12-11T17:25:47.848Z,75.80
2018-12-11T17:28:17.327Z,75.90
2018-12-11T17:30:46.505Z,76.00
2018-12-11T17:33:15.790Z,76.00
2018-12-11T17:35:45.569Z,76.10
2018-12-11T17:38:14.734Z,76.10
2018-12-11T17:40:45.137Z,75.90
2018-12-11T17:43:14.397Z,75.80
2018-12-11T17:45:43.433Z,75.70
2018-12-11T17:48:12.858Z,75.80
2018-12-11T17:50:42.190Z,76.00
2018-12-11T17:53:11.761Z,75.80
2018-12-11T17:55:40.811Z,75.60
2018-12-11T17:58:10.001Z,75.70
2018-12-11T18:00:39.082Z,75.80
2018-12-11T18:03:08.274Z,75.50
2018-12-11T18:05:37.319Z,75.20
2018-12-11T18:08:07.514Z,75.40
2018-12-11T18:10:36.579Z,75.50
2018-12-11T18:13:05.757Z,76.00
2018-12-11T18:15:34.979Z,75.70
2018-12-11T18:18:04.105Z,75.70
2018-12-11T18:20:34.159Z,75.80
2018-12-11T18:23:03.351Z,75.80
2018-12-11T18:25:33.605Z,75.90
2018-12-11T18:28:02.778Z,76.10
2018-12-11T18:30:31.828Z,75.80
2018-12-11T18:33:02.084Z,76.00
2018-12-11T18:35:31.212Z,75.80
2018-12-11T18:38:00.528Z,75.80
2018-12-11T18:40:31.973Z,75.80
2018-12-11T18:43:01.123Z,75.50
2018-12-11T18:45:30.257Z,75.70
2018-12-11T18:47:59.408Z,75.80
2018-12-11T18:50:28.478Z,75.80
2018-12-11T18:52:58.435Z,76.00
2018-12-11T18:55:27.632Z,76.20
2018-12-11T18:57:56.898Z,76.10
2018-12-11T19:00:26.129Z,76.10
2018-12-11T19:02:55.696Z,76.40
2018-12-11T19:05:24.920Z,76.40
2018-12-11T19:07:55.427Z,76.50
2018-12-11T19:10:25.859Z,76.40
2018-12-11T19:12:55.027Z,76.50
2018-12-11T19:15:24.410Z,76.50
2018-12-11T19:17:53.474Z,76.60
2018-12-11T19:20:22.883Z,76.80
2018-12-11T19:22:55.197Z,77.40
2018-12-11T19:25:24.516Z,76.90
2018-12-11T19:27:53.685Z,76.70
2018-12-11T19:30:23.561Z,76.40
2018-12-11T19:32:54.627Z,76.50
2018-12-11T19:35:25.608Z,76.70
2018-12-11T19:37:56.701Z,76.60
2018-12-11T19:40:25.817Z,76.60
2018-12-11T19:42:56.017Z,76.50
2018-12-11T19:45:25.145Z,76.40
2018-12-11T19:47:54.232Z,76.40
2018-12-11T19:50:23.307Z,76.50
2018-12-11T19:52:52.397Z,76.50
2018-12-11T19:55:21.703Z,76.70
2018-12-11T19:57:51.128Z,76.70
2018-12-11T20:00:20.362Z,76.70
2018-12-11T20:02:49.565Z,76.70
2018-12-11T20:05:18.714Z,76.80
2018-12-11T20:07:47.891Z,76.80
2018-12-11T20:10:18.425Z,76.70
2018-12-11T20:12:47.952Z,76.50
2018-12-11T20:15:17.048Z,76.40
2018-12-11T20:17:46.232Z,76.60
2018-12-11T20:20:23.037Z,76.60
2018-12-11T20:22:52.316Z,77.40
2018-12-11T20:25:21.416Z,76.50
2018-12-11T20:27:50.767Z,76.30
2018-12-11T20:30:19.907Z,76.40
2018-12-11T20:32:49.004Z,76.60
2018-12-11T20:35:18.132Z,76.40
2018-12-11T20:37:47.372Z,76.20
2018-12-11T20:40:16.501Z,76.40
2018-12-11T20:42:45.529Z,76.40
2018-12-11T20:45:14.644Z,76.50
2018-12-11T20:47:43.804Z,76.70
2018-12-11T20:50:12.981Z,76.60
2018-12-11T20:52:42.073Z,76.70
2018-12-11T20:55:11.229Z,76.70
2018-12-11T20:57:40.287Z,76.70
2018-12-11T21:00:10.686Z,76.70
2018-12-11T21:02:40.052Z,76.80
2018-12-11T21:05:09.138Z,77.00
2018-12-11T21:07:38.359Z,77.00
2018-12-11T21:10:10.339Z,77.20
2018-12-11T21:12:39.481Z,77.30
2018-12-11T21:15:09.073Z,77.40
2018-12-11T21:17:39.130Z,77.50
2018-12-11T21:20:08.731Z,77.10
2018-12-11T21:22:38.028Z,77.10
2018-12-11T21:25:07.428Z,77.20
2018-12-11T21:27:36.495Z,77.00
2018-12-11T21:30:07.808Z,77.00
2018-12-11T21:32:36.931Z,76.90
2018-12-11T21:35:08.174Z,76.70
2018-12-11T21:37:37.378Z,77.00
2018-12-11T21:40:07.310Z,77.00
2018-12-11T21:42:36.436Z,77.20
2018-12-11T21:45:06.540Z,77.00
2018-12-11T21:47:35.644Z,76.90
2018-12-11T21:50:07.057Z,76.80
2018-12-11T21:52:36.218Z,76.90
2018-12-11T21:55:07.003Z,77.00
2018-12-11T21:57:36.104Z,77.00
2018-12-11T22:00:08.305Z,77.30
2018-12-11T22:02:37.594Z,77.60
2018-12-11T22:05:06.994Z,77.50
2018-12-11T22:07:36.258Z,77.20
2018-12-11T22:10:06.135Z,77.20
2018-12-11T22:12:35.727Z,77.40
2018-12-11T22:15:05.443Z,77.40
2018-12-11T22:17:34.821Z,77.10
2018-12-11T22:20:05.485Z,77.10
2018-12-11T22:22:34.629Z,76.90
2018-12-11T22:25:03.761Z,77.00
2018-12-11T22:27:32.854Z,77.30
2018-12-11T22:30:01.932Z,77.50
2018-12-11T22:32:32.269Z,77.70
2018-12-11T22:35:01.355Z,77.60
2018-12-11T22:37:32.560Z,77.40
2018-12-11T22:40:01.653Z,77.20
2018-12-11T22:42:31.770Z,77.30
2018-12-11T22:45:00.882Z,77.20
2018-12-11T22:47:30.680Z,77.40
2018-12-11T22:49:59.739Z,77.50
2018-12-11T22:52:28.725Z,77.50
2018-12-11T22:54:57.804Z,77.60
2018-12-11T22:57:26.902Z,77.40
2018-12-11T22:59:56.007Z,77.30
2018-12-11T23:02:25.238Z,77.50
2018-12-11T23:04:55.249Z,77.40
2018-12-11T23:07:24.271Z,77.40
2018-12-11T23:09:53.311Z,77.20
2018-12-11T23:12:22.377Z,77.00
2018-12-11T23:14:51.544Z,77.10
2018-12-11T23:17:20.572Z,77.20
2018-12-11T23:19:49.739Z,77.10
2018-12-11T23:22:19.543Z,77.20
2018-12-11T23:24:48.969Z,77.30
2018-12-11T23:27:18.074Z,77.00
2018-12-11T23:29:47.202Z,77.30
2018-12-11T23:32:16.191Z,77.50
2018-12-11T23:34:45.258Z,77.60
2018-12-11T23:37:14.336Z,77.70
2018-12-11T23:39:43.368Z,77.50
2018-12-11T23:42:12.436Z,77.50
2018-12-11T23:44:41.602Z,77.50
2018-12-11T23:47:10.572Z,77.60
2018-12-11T23:49:39.641Z,77.50
2018-12-11T23:52:08.731Z,77.60
2018-12-11T23:54:37.749Z,77.50
2018-12-11T23:57:06.805Z,77.40
2018-12-11T23:59:35.804Z,77.20
